Cherryvale, Kansas
Current Conditions -  °F | °C
As of 6:52 AM on Saturday 20 Dec 2014 (Local Time) from KPPF Reporting Station
Overcast Overcast  
Wind Chill: 37°   Ceiling: 1900
Heat Index: 37°   Visibility: 9mi
Dew Point: 34°   Wind: 3mph
Humidity: 89%   Direction: 190°S
Pressure: 30.24"   Gusts: NA
Location:  37.27°N, 95.55°W
Report Text: KPPF 201252Z AUTO 19003KT 9SM OVC019 03/01 A3024 RMK AO2 SLP246 T00280011
Loading
Personal Weather Stations






























Interactive Weather Map New forecast layout! Learn more

10-Day Weather Forecast

Advertisements
Track Severe Weather on mobile